sensor_id;sensor_type;location;lat;lon;timestamp;P1;durP1;ratioP1;P2;durP2;ratioP2
42246;SDS011;27913;42.722;23.268;2023-03-31T00:04:24;15.93;;;5.93;;
42246;SDS011;27913;42.722;23.268;2023-03-31T00:06:50;21.92;;;9.15;;
42246;SDS011;27913;42.722;23.268;2023-03-31T00:09:18;19.20;;;6.88;;
42246;SDS011;27913;42.722;23.268;2023-03-31T00:11:46;20.15;;;6.55;;
42246;SDS011;27913;42.722;23.268;2023-03-31T00:14:12;19.00;;;6.47;;
42246;SDS011;27913;42.722;23.268;2023-03-31T00:16:39;15.20;;;5.32;;
42246;SDS011;27913;42.722;23.268;2023-03-31T00:19:05;15.80;;;6.25;;
42246;SDS011;27913;42.722;23.268;2023-03-31T00:21:34;17.58;;;7.15;;
42246;SDS011;27913;42.722;23.268;2023-03-31T00:24:02;14.70;;;6.25;;
42246;SDS011;27913;42.722;23.268;2023-03-31T00:26:30;12.98;;;5.38;;
42246;SDS011;27913;42.722;23.268;2023-03-31T00:28:56;13.18;;;5.40;;
42246;SDS011;27913;42.722;23.268;2023-03-31T00:31:22;10.48;;;4.93;;
42246;SDS011;27913;42.722;23.268;2023-03-31T00:33:48;14.90;;;6.32;;
42246;SDS011;27913;42.722;23.268;2023-03-31T00:36:14;13.77;;;5.18;;
42246;SDS011;27913;42.722;23.268;2023-03-31T00:38:48;15.32;;;5.70;;
42246;SDS011;27913;42.722;23.268;2023-03-31T00:41:14;14.93;;;5.72;;
42246;SDS011;27913;42.722;23.268;2023-03-31T00:43:40;13.32;;;4.57;;
42246;SDS011;27913;42.722;23.268;2023-03-31T00:46:14;12.57;;;4.68;;
42246;SDS011;27913;42.722;23.268;2023-03-31T00:48:51;19.10;;;5.88;;
42246;SDS011;27913;42.722;23.268;2023-03-31T00:51:21;16.33;;;5.40;;
42246;SDS011;27913;42.722;23.268;2023-03-31T00:53:51;11.65;;;4.72;;
42246;SDS011;27913;42.722;23.268;2023-03-31T00:56:21;13.85;;;4.68;;
42246;SDS011;27913;42.722;23.268;2023-03-31T00:58:48;10.60;;;3.92;;
42246;SDS011;27913;42.722;23.268;2023-03-31T01:01:18;24.58;;;9.50;;
42246;SDS011;27913;42.722;23.268;2023-03-31T01:03:48;36.78;;;12.98;;
42246;SDS011;27913;42.722;23.268;2023-03-31T01:06:14;24.27;;;8.55;;
42246;SDS011;27913;42.722;23.268;2023-03-31T01:08:43;29.13;;;6.93;;
42246;SDS011;27913;42.722;23.268;2023-03-31T01:11:12;19.15;;;7.53;;
42246;SDS011;27913;42.722;23.268;2023-03-31T01:13:40;16.70;;;6.57;;
42246;SDS011;27913;42.722;23.268;2023-03-31T01:16:07;13.30;;;5.30;;
42246;SDS011;27913;42.722;23.268;2023-03-31T01:18:34;14.93;;;5.57;;
42246;SDS011;27913;42.722;23.268;2023-03-31T01:51:33;12.15;;;4.65;;
42246;SDS011;27913;42.722;23.268;2023-03-31T01:54:12;10.25;;;3.75;;
42246;SDS011;27913;42.722;23.268;2023-03-31T01:56:51;26.38;;;6.55;;
42246;SDS011;27913;42.722;23.268;2023-03-31T01:59:25;15.32;;;5.43;;
42246;SDS011;27913;42.722;23.268;2023-03-31T02:02:01;12.18;;;4.32;;
42246;SDS011;27913;42.722;23.268;2023-03-31T02:04:45;10.55;;;3.03;;
42246;SDS011;27913;42.722;23.268;2023-03-31T02:07:16;9.80;;;3.75;;
42246;SDS011;27913;42.722;23.268;2023-03-31T02:09:47;6.90;;;2.75;;
42246;SDS011;27913;42.722;23.268;2023-03-31T02:12:17;6.75;;;1.98;;
42246;SDS011;27913;42.722;23.268;2023-03-31T02:14:46;3.40;;;1.45;;
42246;SDS011;27913;42.722;23.268;2023-03-31T02:17:16;6.18;;;1.13;;
42246;SDS011;27913;42.722;23.268;2023-03-31T02:19:46;3.45;;;0.98;;
42246;SDS011;27913;42.722;23.268;2023-03-31T02:22:15;6.40;;;1.08;;
42246;SDS011;27913;42.722;23.268;2023-03-31T02:24:43;3.70;;;1.05;;
42246;SDS011;27913;42.722;23.268;2023-03-31T02:29:40;1.92;;;0.57;;
42246;SDS011;27913;42.722;23.268;2023-03-31T02:32:20;6.18;;;0.93;;
42246;SDS011;27913;42.722;23.268;2023-03-31T02:34:50;1.30;;;0.60;;
42246;SDS011;27913;42.722;23.268;2023-03-31T02:37:16;1.90;;;0.65;;
42246;SDS011;27913;42.722;23.268;2023-03-31T02:39:42;4.18;;;0.88;;
42246;SDS011;27913;42.722;23.268;2023-03-31T02:42:10;2.75;;;1.05;;
42246;SDS011;27913;42.722;23.268;2023-03-31T02:44:36;3.72;;;1.10;;
42246;SDS011;27913;42.722;23.268;2023-03-31T02:47:03;5.25;;;0.88;;
42246;SDS011;27913;42.722;23.268;2023-03-31T02:49:32;4.20;;;1.00;;
42246;SDS011;27913;42.722;23.268;2023-03-31T02:57:37;4.47;;;1.33;;
42246;SDS011;27913;42.722;23.268;2023-03-31T03:00:40;3.33;;;1.23;;
42246;SDS011;27913;42.722;23.268;2023-03-31T03:14:22;10.00;;;2.10;;
42246;SDS011;27913;42.722;23.268;2023-03-31T03:17:08;13.93;;;2.60;;
42246;SDS011;27913;42.722;23.268;2023-03-31T03:19:39;7.82;;;2.00;;
42246;SDS011;27913;42.722;23.268;2023-03-31T03:22:06;10.10;;;1.40;;
42246;SDS011;27913;42.722;23.268;2023-03-31T03:24:31;8.30;;;1.90;;
42246;SDS011;27913;42.722;23.268;2023-03-31T03:26:58;13.13;;;2.53;;
42246;SDS011;27913;42.722;23.268;2023-03-31T03:29:25;6.95;;;1.75;;
42246;SDS011;27913;42.722;23.268;2023-03-31T03:31:51;7.38;;;1.88;;
42246;SDS011;27913;42.722;23.268;2023-03-31T03:34:17;7.43;;;1.73;;
42246;SDS011;27913;42.722;23.268;2023-03-31T03:36:44;9.65;;;3.15;;
42246;SDS011;27913;42.722;23.268;2023-03-31T03:39:10;6.63;;;2.28;;
42246;SDS011;27913;42.722;23.268;2023-03-31T03:41:36;6.15;;;1.77;;
42246;SDS011;27913;42.722;23.268;2023-03-31T03:44:02;5.78;;;2.72;;
42246;SDS011;27913;42.722;23.268;2023-03-31T03:46:28;6.97;;;1.63;;
42246;SDS011;27913;42.722;23.268;2023-03-31T03:48:53;10.38;;;2.90;;
42246;SDS011;27913;42.722;23.268;2023-03-31T03:51:19;3.90;;;1.30;;
42246;SDS011;27913;42.722;23.268;2023-03-31T03:53:45;6.82;;;1.42;;
42246;SDS011;27913;42.722;23.268;2023-03-31T03:56:11;8.85;;;2.45;;
42246;SDS011;27913;42.722;23.268;2023-03-31T03:58:36;6.95;;;1.92;;
42246;SDS011;27913;42.722;23.268;2023-03-31T04:01:02;7.85;;;2.60;;
42246;SDS011;27913;42.722;23.268;2023-03-31T04:03:28;10.40;;;2.28;;
42246;SDS011;27913;42.722;23.268;2023-03-31T04:05:53;8.80;;;2.20;;
42246;SDS011;27913;42.722;23.268;2023-03-31T04:08:19;5.22;;;1.45;;
42246;SDS011;27913;42.722;23.268;2023-03-31T04:10:45;5.28;;;1.55;;
42246;SDS011;27913;42.722;23.268;2023-03-31T04:13:13;12.43;;;1.98;;
42246;SDS011;27913;42.722;23.268;2023-03-31T04:15:39;5.32;;;1.33;;
42246;SDS011;27913;42.722;23.268;2023-03-31T04:18:04;9.32;;;1.85;;
42246;SDS011;27913;42.722;23.268;2023-03-31T04:20:30;4.57;;;1.35;;
42246;SDS011;27913;42.722;23.268;2023-03-31T04:22:55;7.45;;;1.73;;
42246;SDS011;27913;42.722;23.268;2023-03-31T04:25:21;5.70;;;1.85;;
42246;SDS011;27913;42.722;23.268;2023-03-31T04:27:48;6.75;;;2.17;;
42246;SDS011;27913;42.722;23.268;2023-03-31T04:30:19;7.95;;;2.38;;
42246;SDS011;27913;42.722;23.268;2023-03-31T04:35:16;12.35;;;1.95;;
42246;SDS011;27913;42.722;23.268;2023-03-31T04:37:42;5.70;;;1.50;;
42246;SDS011;27913;42.722;23.268;2023-03-31T04:40:08;4.57;;;1.50;;
42246;SDS011;27913;42.722;23.268;2023-03-31T04:42:34;6.75;;;1.77;;
42246;SDS011;27913;42.722;23.268;2023-03-31T04:45:03;9.73;;;1.92;;
42246;SDS011;27913;42.722;23.268;2023-03-31T04:47:29;5.93;;;1.55;;
42246;SDS011;27913;42.722;23.268;2023-03-31T04:49:55;5.95;;;1.45;;
42246;SDS011;27913;42.722;23.268;2023-03-31T04:52:20;3.30;;;1.10;;
42246;SDS011;27913;42.722;23.268;2023-03-31T04:54:46;6.97;;;1.58;;
42246;SDS011;27913;42.722;23.268;2023-03-31T04:57:11;3.15;;;0.95;;
42246;SDS011;27913;42.722;23.268;2023-03-31T04:59:37;3.00;;;1.23;;
42246;SDS011;27913;42.722;23.268;2023-03-31T05:02:02;5.43;;;1.65;;
42246;SDS011;27913;42.722;23.268;2023-03-31T05:04:28;2.63;;;0.80;;
42246;SDS011;27913;42.722;23.268;2023-03-31T05:06:53;1.80;;;0.80;;
42246;SDS011;27913;42.722;23.268;2023-03-31T05:09:19;2.92;;;0.80;;
42246;SDS011;27913;42.722;23.268;2023-03-31T05:11:45;2.65;;;1.05;;
42246;SDS011;27913;42.722;23.268;2023-03-31T05:14:10;4.30;;;1.02;;
42246;SDS011;27913;42.722;23.268;2023-03-31T05:16:36;3.47;;;0.68;;
42246;SDS011;27913;42.722;23.268;2023-03-31T05:19:02;1.48;;;0.60;;
42246;SDS011;27913;42.722;23.268;2023-03-31T05:21:28;2.75;;;0.90;;
42246;SDS011;27913;42.722;23.268;2023-03-31T05:23:55;2.03;;;0.68;;
42246;SDS011;27913;42.722;23.268;2023-03-31T05:26:22;3.00;;;0.80;;
42246;SDS011;27913;42.722;23.268;2023-03-31T05:28:49;1.42;;;0.55;;
42246;SDS011;27913;42.722;23.268;2023-03-31T05:31:16;1.60;;;0.70;;
42246;SDS011;27913;42.722;23.268;2023-03-31T05:33:42;2.17;;;0.68;;
42246;SDS011;27913;42.722;23.268;2023-03-31T05:36:11;2.78;;;0.80;;
42246;SDS011;27913;42.722;23.268;2023-03-31T05:38:39;3.33;;;0.50;;
42246;SDS011;27913;42.722;23.268;2023-03-31T05:41:05;3.60;;;1.13;;
42246;SDS011;27913;42.722;23.268;2023-03-31T05:43:33;3.55;;;1.17;;
42246;SDS011;27913;42.722;23.268;2023-03-31T05:45:59;1.70;;;0.60;;
42246;SDS011;27913;42.722;23.268;2023-03-31T05:48:25;5.25;;;1.20;;
42246;SDS011;27913;42.722;23.268;2023-03-31T05:50:54;11.38;;;1.58;;
42246;SDS011;27913;42.722;23.268;2023-03-31T05:53:21;9.48;;;2.33;;
42246;SDS011;27913;42.722;23.268;2023-03-31T05:55:47;8.40;;;1.75;;
42246;SDS011;27913;42.722;23.268;2023-03-31T05:58:12;5.28;;;1.35;;
42246;SDS011;27913;42.722;23.268;2023-03-31T06:00:38;7.18;;;2.10;;
42246;SDS011;27913;42.722;23.268;2023-03-31T06:03:03;10.13;;;1.52;;
42246;SDS011;27913;42.722;23.268;2023-03-31T06:05:31;9.93;;;2.45;;
42246;SDS011;27913;42.722;23.268;2023-03-31T06:07:58;10.18;;;2.17;;
42246;SDS011;27913;42.722;23.268;2023-03-31T06:10:24;6.95;;;1.45;;
42246;SDS011;27913;42.722;23.268;2023-03-31T06:12:51;5.50;;;1.50;;
42246;SDS011;27913;42.722;23.268;2023-03-31T06:15:16;7.75;;;1.92;;
42246;SDS011;27913;42.722;23.268;2023-03-31T06:17:42;6.43;;;1.40;;
42246;SDS011;27913;42.722;23.268;2023-03-31T06:20:07;4.28;;;1.25;;
42246;SDS011;27913;42.722;23.268;2023-03-31T06:22:33;10.20;;;1.23;;
42246;SDS011;27913;42.722;23.268;2023-03-31T06:24:59;8.27;;;1.70;;
42246;SDS011;27913;42.722;23.268;2023-03-31T06:27:25;12.40;;;3.67;;
42246;SDS011;27913;42.722;23.268;2023-03-31T06:29:50;5.80;;;1.58;;
42246;SDS011;27913;42.722;23.268;2023-03-31T06:32:16;4.82;;;1.33;;
42246;SDS011;27913;42.722;23.268;2023-03-31T06:34:41;4.45;;;1.30;;
42246;SDS011;27913;42.722;23.268;2023-03-31T06:37:07;5.70;;;1.45;;
42246;SDS011;27913;42.722;23.268;2023-03-31T06:39:32;8.77;;;1.77;;
42246;SDS011;27913;42.722;23.268;2023-03-31T06:41:57;9.98;;;1.10;;
42246;SDS011;27913;42.722;23.268;2023-03-31T06:44:23;5.43;;;1.77;;
42246;SDS011;27913;42.722;23.268;2023-03-31T06:46:48;7.25;;;1.33;;
42246;SDS011;27913;42.722;23.268;2023-03-31T06:49:14;4.32;;;1.17;;
42246;SDS011;27913;42.722;23.268;2023-03-31T06:51:40;4.38;;;1.10;;
42246;SDS011;27913;42.722;23.268;2023-03-31T06:54:05;5.80;;;2.10;;
42246;SDS011;27913;42.722;23.268;2023-03-31T06:56:31;9.70;;;1.30;;
42246;SDS011;27913;42.722;23.268;2023-03-31T06:58:56;7.22;;;1.65;;
42246;SDS011;27913;42.722;23.268;2023-03-31T07:01:22;6.97;;;1.90;;
42246;SDS011;27913;42.722;23.268;2023-03-31T07:03:47;5.07;;;1.45;;
42246;SDS011;27913;42.722;23.268;2023-03-31T07:06:13;7.30;;;1.45;;
42246;SDS011;27913;42.722;23.268;2023-03-31T07:08:38;4.78;;;1.50;;
42246;SDS011;27913;42.722;23.268;2023-03-31T07:11:04;9.50;;;1.90;;
42246;SDS011;27913;42.722;23.268;2023-03-31T07:13:29;2.03;;;0.95;;
42246;SDS011;27913;42.722;23.268;2023-03-31T07:15:55;6.50;;;1.30;;
42246;SDS011;27913;42.722;23.268;2023-03-31T07:18:21;2.63;;;1.00;;
42246;SDS011;27913;42.722;23.268;2023-03-31T07:20:49;7.82;;;1.40;;
42246;SDS011;27913;42.722;23.268;2023-03-31T07:23:15;7.50;;;1.50;;
42246;SDS011;27913;42.722;23.268;2023-03-31T07:25:41;6.07;;;1.55;;
42246;SDS011;27913;42.722;23.268;2023-03-31T07:28:06;5.97;;;1.42;;
42246;SDS011;27913;42.722;23.268;2023-03-31T07:30:32;5.85;;;2.08;;
42246;SDS011;27913;42.722;23.268;2023-03-31T07:32:58;7.40;;;2.00;;
42246;SDS011;27913;42.722;23.268;2023-03-31T07:35:23;10.55;;;2.22;;
42246;SDS011;27913;42.722;23.268;2023-03-31T07:37:49;11.68;;;2.25;;
42246;SDS011;27913;42.722;23.268;2023-03-31T07:40:25;5.60;;;1.50;;
42246;SDS011;27913;42.722;23.268;2023-03-31T07:42:52;4.35;;;1.77;;
42246;SDS011;27913;42.722;23.268;2023-03-31T07:45:22;4.30;;;1.55;;
42246;SDS011;27913;42.722;23.268;2023-03-31T07:47:49;6.75;;;2.13;;
42246;SDS011;27913;42.722;23.268;2023-03-31T07:50:15;7.53;;;1.67;;
42246;SDS011;27913;42.722;23.268;2023-03-31T07:52:41;7.95;;;1.98;;
42246;SDS011;27913;42.722;23.268;2023-03-31T07:55:07;3.20;;;1.42;;
42246;SDS011;27913;42.722;23.268;2023-03-31T07:57:34;4.50;;;1.48;;
42246;SDS011;27913;42.722;23.268;2023-03-31T08:00:00;3.17;;;1.17;;
42246;SDS011;27913;42.722;23.268;2023-03-31T08:02:30;3.70;;;1.00;;
42246;SDS011;27913;42.722;23.268;2023-03-31T08:04:55;5.55;;;2.00;;
42246;SDS011;27913;42.722;23.268;2023-03-31T08:07:21;5.13;;;1.60;;
42246;SDS011;27913;42.722;23.268;2023-03-31T08:09:46;6.75;;;1.38;;
42246;SDS011;27913;42.722;23.268;2023-03-31T08:12:12;10.98;;;1.70;;
42246;SDS011;27913;42.722;23.268;2023-03-31T08:14:38;5.57;;;1.08;;
42246;SDS011;27913;42.722;23.268;2023-03-31T08:17:03;11.80;;;1.52;;
42246;SDS011;27913;42.722;23.268;2023-03-31T08:19:29;9.57;;;1.20;;
42246;SDS011;27913;42.722;23.268;2023-03-31T08:21:55;4.20;;;1.40;;
42246;SDS011;27913;42.722;23.268;2023-03-31T08:24:20;4.32;;;1.10;;
42246;SDS011;27913;42.722;23.268;2023-03-31T08:26:46;5.13;;;1.17;;
42246;SDS011;27913;42.722;23.268;2023-03-31T08:29:11;12.50;;;1.50;;
42246;SDS011;27913;42.722;23.268;2023-03-31T08:31:37;5.07;;;1.42;;
42246;SDS011;27913;42.722;23.268;2023-03-31T08:34:03;8.60;;;1.42;;
42246;SDS011;27913;42.722;23.268;2023-03-31T08:36:28;6.15;;;1.63;;
42246;SDS011;27913;42.722;23.268;2023-03-31T08:38:54;7.05;;;2.17;;
42246;SDS011;27913;42.722;23.268;2023-03-31T08:44:02;3.83;;;0.90;;
42246;SDS011;27913;42.722;23.268;2023-03-31T08:46:39;7.35;;;1.40;;
42246;SDS011;27913;42.722;23.268;2023-03-31T08:49:06;5.93;;;1.25;;
42246;SDS011;27913;42.722;23.268;2023-03-31T08:51:40;5.20;;;1.83;;
42246;SDS011;27913;42.722;23.268;2023-03-31T08:56:58;4.75;;;1.60;;
42246;SDS011;27913;42.722;23.268;2023-03-31T09:01:58;4.00;;;1.05;;
42246;SDS011;27913;42.722;23.268;2023-03-31T09:04:57;3.45;;;0.80;;
42246;SDS011;27913;42.722;23.268;2023-03-31T09:07:43;4.10;;;1.00;;
42246;SDS011;27913;42.722;23.268;2023-03-31T09:10:57;4.35;;;1.40;;
42246;SDS011;27913;42.722;23.268;2023-03-31T09:16:12;3.72;;;1.05;;
42246;SDS011;27913;42.722;23.268;2023-03-31T09:18:39;5.00;;;1.08;;
42246;SDS011;27913;42.722;23.268;2023-03-31T09:23:56;4.15;;;1.15;;
42246;SDS011;27913;42.722;23.268;2023-03-31T09:26:39;4.72;;;0.77;;
42246;SDS011;27913;42.722;23.268;2023-03-31T09:32:19;7.63;;;0.70;;
42246;SDS011;27913;42.722;23.268;2023-03-31T09:34:45;4.97;;;0.90;;
42246;SDS011;27913;42.722;23.268;2023-03-31T09:37:14;3.95;;;1.05;;
42246;SDS011;27913;42.722;23.268;2023-03-31T09:39:40;6.35;;;1.20;;
42246;SDS011;27913;42.722;23.268;2023-03-31T09:42:05;3.80;;;1.02;;
42246;SDS011;27913;42.722;23.268;2023-03-31T09:44:37;4.85;;;1.10;;
42246;SDS011;27913;42.722;23.268;2023-03-31T09:47:39;4.40;;;0.73;;
42246;SDS011;27913;42.722;23.268;2023-03-31T09:50:02;1.83;;;0.73;;
42246;SDS011;27913;42.722;23.268;2023-03-31T09:52:30;5.32;;;0.98;;
42246;SDS011;27913;42.722;23.268;2023-03-31T09:55:02;5.70;;;1.10;;
42246;SDS011;27913;42.722;23.268;2023-03-31T09:57:35;3.22;;;1.00;;
42246;SDS011;27913;42.722;23.268;2023-03-31T10:08:20;3.72;;;0.90;;
42246;SDS011;27913;42.722;23.268;2023-03-31T10:13:27;4.93;;;0.90;;
42246;SDS011;27913;42.722;23.268;2023-03-31T10:16:05;3.88;;;0.90;;
42246;SDS011;27913;42.722;23.268;2023-03-31T10:18:38;5.38;;;1.00;;
42246;SDS011;27913;42.722;23.268;2023-03-31T10:21:06;2.30;;;0.80;;
42246;SDS011;27913;42.722;23.268;2023-03-31T10:23:47;3.13;;;1.08;;
42246;SDS011;27913;42.722;23.268;2023-03-31T10:26:19;4.40;;;0.68;;
42246;SDS011;27913;42.722;23.268;2023-03-31T10:28:50;5.22;;;1.20;;
42246;SDS011;27913;42.722;23.268;2023-03-31T10:31:26;6.72;;;1.05;;
42246;SDS011;27913;42.722;23.268;2023-03-31T10:34:03;3.50;;;0.80;;
42246;SDS011;27913;42.722;23.268;2023-03-31T10:38:56;7.57;;;1.30;;
42246;SDS011;27913;42.722;23.268;2023-03-31T10:41:23;4.82;;;1.33;;
42246;SDS011;27913;42.722;23.268;2023-03-31T10:44:02;4.90;;;1.00;;
42246;SDS011;27913;42.722;23.268;2023-03-31T10:49:39;6.55;;;1.50;;
42246;SDS011;27913;42.722;23.268;2023-03-31T10:52:17;5.20;;;1.50;;
42246;SDS011;27913;42.722;23.268;2023-03-31T10:54:45;5.38;;;2.17;;
42246;SDS011;27913;42.722;23.268;2023-03-31T10:57:12;0.88;;;0.40;;
42246;SDS011;27913;42.722;23.268;2023-03-31T11:02:39;5.88;;;1.73;;
42246;SDS011;27913;42.722;23.268;2023-03-31T11:05:23;5.25;;;1.42;;
42246;SDS011;27913;42.722;23.268;2023-03-31T11:16:17;8.18;;;1.20;;
42246;SDS011;27913;42.722;23.268;2023-03-31T11:19:08;0.75;;;0.30;;
42246;SDS011;27913;42.722;23.268;2023-03-31T11:30:26;4.90;;;1.25;;
42246;SDS011;27913;42.722;23.268;2023-03-31T11:32:40;2.38;;;0.77;;
42246;SDS011;27913;42.722;23.268;2023-03-31T11:35:18;11.55;;;2.72;;
42246;SDS011;27913;42.722;23.268;2023-03-31T11:41:01;1.02;;;0.45;;
42246;SDS011;27913;42.722;23.268;2023-03-31T11:46:19;3.72;;;1.13;;
42246;SDS011;27913;42.722;23.268;2023-03-31T11:48:52;2.17;;;0.80;;
42246;SDS011;27913;42.722;23.268;2023-03-31T11:54:54;7.10;;;1.50;;
42246;SDS011;27913;42.722;23.268;2023-03-31T11:57:27;4.13;;;1.67;;
42246;SDS011;27913;42.722;23.268;2023-03-31T11:59:54;5.22;;;1.60;;
42246;SDS011;27913;42.722;23.268;2023-03-31T12:02:35;2.85;;;1.02;;
42246;SDS011;27913;42.722;23.268;2023-03-31T12:05:08;2.65;;;1.27;;
42246;SDS011;27913;42.722;23.268;2023-03-31T12:15:47;1.35;;;0.68;;
42246;SDS011;27913;42.722;23.268;2023-03-31T12:18:25;2.08;;;0.55;;
42246;SDS011;27913;42.722;23.268;2023-03-31T12:20:57;8.13;;;1.08;;
42246;SDS011;27913;42.722;23.268;2023-03-31T12:23:28;3.33;;;0.80;;
42246;SDS011;27913;42.722;23.268;2023-03-31T12:26:05;1.13;;;0.47;;
42246;SDS011;27913;42.722;23.268;2023-03-31T12:28:55;2.00;;;0.73;;
42246;SDS011;27913;42.722;23.268;2023-03-31T12:31:25;0.73;;;0.30;;
42246;SDS011;27913;42.722;23.268;2023-03-31T12:33:56;1.05;;;0.55;;
42246;SDS011;27913;42.722;23.268;2023-03-31T12:41:56;7.50;;;1.33;;
42246;SDS011;27913;42.722;23.268;2023-03-31T12:44:37;4.15;;;1.13;;
42246;SDS011;27913;42.722;23.268;2023-03-31T12:52:30;9.70;;;1.60;;
42246;SDS011;27913;42.722;23.268;2023-03-31T13:03:48;1.38;;;0.60;;
42246;SDS011;27913;42.722;23.268;2023-03-31T13:09:05;5.68;;;1.60;;
42246;SDS011;27913;42.722;23.268;2023-03-31T13:11:44;0.75;;;0.20;;
42246;SDS011;27913;42.722;23.268;2023-03-31T13:16:45;3.70;;;0.75;;
42246;SDS011;27913;42.722;23.268;2023-03-31T13:19:11;3.25;;;1.45;;
42246;SDS011;27913;42.722;23.268;2023-03-31T13:21:52;5.03;;;0.90;;
42246;SDS011;27913;42.722;23.268;2023-03-31T13:24:22;5.68;;;1.02;;
42246;SDS011;27913;42.722;23.268;2023-03-31T13:26:50;5.65;;;1.13;;
42246;SDS011;27913;42.722;23.268;2023-03-31T13:32:27;3.13;;;1.02;;
42246;SDS011;27913;42.722;23.268;2023-03-31T13:34:41;4.13;;;1.00;;
42246;SDS011;27913;42.722;23.268;2023-03-31T13:50:36;4.63;;;1.10;;
42246;SDS011;27913;42.722;23.268;2023-03-31T14:04:29;4.85;;;1.00;;
42246;SDS011;27913;42.722;23.268;2023-03-31T14:09:52;3.35;;;1.05;;
42246;SDS011;27913;42.722;23.268;2023-03-31T14:14:44;3.25;;;1.10;;
42246;SDS011;27913;42.722;23.268;2023-03-31T14:17:10;0.73;;;0.38;;
42246;SDS011;27913;42.722;23.268;2023-03-31T14:19:49;6.03;;;1.05;;
42246;SDS011;27913;42.722;23.268;2023-03-31T14:22:43;4.03;;;1.15;;
42246;SDS011;27913;42.722;23.268;2023-03-31T14:34:06;1.92;;;0.85;;
42246;SDS011;27913;42.722;23.268;2023-03-31T14:39:11;3.50;;;0.98;;
42246;SDS011;27913;42.722;23.268;2023-03-31T14:41:42;3.97;;;0.70;;
42246;SDS011;27913;42.722;23.268;2023-03-31T14:44:12;0.30;;;0.30;;
42246;SDS011;27913;42.722;23.268;2023-03-31T14:46:40;3.33;;;1.02;;
42246;SDS011;27913;42.722;23.268;2023-03-31T14:49:28;8.05;;;1.33;;
42246;SDS011;27913;42.722;23.268;2023-03-31T14:51:53;3.22;;;0.77;;
42246;SDS011;27913;42.722;23.268;2023-03-31T14:54:22;1.35;;;0.68;;
42246;SDS011;27913;42.722;23.268;2023-03-31T14:56:57;2.80;;;0.85;;
42246;SDS011;27913;42.722;23.268;2023-03-31T14:59:27;5.25;;;1.45;;
42246;SDS011;27913;42.722;23.268;2023-03-31T15:01:57;5.00;;;0.93;;
42246;SDS011;27913;42.722;23.268;2023-03-31T15:04:24;6.43;;;1.35;;
42246;SDS011;27913;42.722;23.268;2023-03-31T15:06:53;1.63;;;0.85;;
42246;SDS011;27913;42.722;23.268;2023-03-31T15:09:20;6.82;;;2.63;;
42246;SDS011;27913;42.722;23.268;2023-03-31T15:11:53;9.77;;;4.10;;
42246;SDS011;27913;42.722;23.268;2023-03-31T15:14:22;15.60;;;5.10;;
42246;SDS011;27913;42.722;23.268;2023-03-31T15:16:48;5.82;;;1.67;;
42246;SDS011;27913;42.722;23.268;2023-03-31T15:19:19;3.45;;;1.20;;
42246;SDS011;27913;42.722;23.268;2023-03-31T15:21:53;4.25;;;1.55;;
42246;SDS011;27913;42.722;23.268;2023-03-31T15:24:25;9.95;;;2.15;;
42246;SDS011;27913;42.722;23.268;2023-03-31T15:29:30;11.52;;;3.53;;
42246;SDS011;27913;42.722;23.268;2023-03-31T15:32:03;4.50;;;1.50;;
42246;SDS011;27913;42.722;23.268;2023-03-31T15:34:36;3.05;;;0.80;;
42246;SDS011;27913;42.722;23.268;2023-03-31T15:37:01;5.65;;;1.45;;
42246;SDS011;27913;42.722;23.268;2023-03-31T15:39:31;2.85;;;1.17;;
42246;SDS011;27913;42.722;23.268;2023-03-31T15:42:00;7.53;;;1.48;;
42246;SDS011;27913;42.722;23.268;2023-03-31T15:44:35;6.72;;;1.40;;
42246;SDS011;27913;42.722;23.268;2023-03-31T15:49:33;3.33;;;0.88;;
42246;SDS011;27913;42.722;23.268;2023-03-31T15:51:59;2.78;;;1.00;;
42246;SDS011;27913;42.722;23.268;2023-03-31T15:54:36;3.80;;;1.15;;
42246;SDS011;27913;42.722;23.268;2023-03-31T15:57:05;4.15;;;1.23;;
42246;SDS011;27913;42.722;23.268;2023-03-31T15:59:46;3.50;;;1.33;;
42246;SDS011;27913;42.722;23.268;2023-03-31T16:02:19;3.53;;;1.17;;
42246;SDS011;27913;42.722;23.268;2023-03-31T16:05:05;2.95;;;1.02;;
42246;SDS011;27913;42.722;23.268;2023-03-31T16:07:33;4.80;;;1.35;;
42246;SDS011;27913;42.722;23.268;2023-03-31T16:10:17;7.18;;;1.75;;
42246;SDS011;27913;42.722;23.268;2023-03-31T16:15:56;5.57;;;1.83;;
42246;SDS011;27913;42.722;23.268;2023-03-31T16:18:23;9.40;;;4.20;;
42246;SDS011;27913;42.722;23.268;2023-03-31T16:21:04;9.68;;;3.97;;
42246;SDS011;27913;42.722;23.268;2023-03-31T16:23:33;17.33;;;6.20;;
42246;SDS011;27913;42.722;23.268;2023-03-31T16:26:02;32.70;;;15.18;;
42246;SDS011;27913;42.722;23.268;2023-03-31T16:28:29;39.00;;;18.23;;
42246;SDS011;27913;42.722;23.268;2023-03-31T16:30:58;30.85;;;15.25;;
42246;SDS011;27913;42.722;23.268;2023-03-31T16:33:26;37.55;;;17.40;;
42246;SDS011;27913;42.722;23.268;2023-03-31T16:35:53;31.10;;;13.32;;
42246;SDS011;27913;42.722;23.268;2023-03-31T16:38:23;20.58;;;8.77;;
42246;SDS011;27913;42.722;23.268;2023-03-31T16:40:52;21.08;;;7.45;;
42246;SDS011;27913;42.722;23.268;2023-03-31T16:43:20;11.65;;;5.30;;
42246;SDS011;27913;42.722;23.268;2023-03-31T16:45:49;12.57;;;4.50;;
42246;SDS011;27913;42.722;23.268;2023-03-31T16:48:16;16.92;;;3.65;;
42246;SDS011;27913;42.722;23.268;2023-03-31T16:50:44;11.00;;;4.15;;
42246;SDS011;27913;42.722;23.268;2023-03-31T16:53:12;9.55;;;3.83;;
42246;SDS011;27913;42.722;23.268;2023-03-31T16:55:39;9.25;;;3.53;;
42246;SDS011;27913;42.722;23.268;2023-03-31T16:58:05;12.82;;;3.33;;
42246;SDS011;27913;42.722;23.268;2023-03-31T17:00:31;12.07;;;3.38;;
42246;SDS011;27913;42.722;23.268;2023-03-31T17:03:02;8.07;;;2.80;;
42246;SDS011;27913;42.722;23.268;2023-03-31T17:05:28;10.55;;;2.65;;
42246;SDS011;27913;42.722;23.268;2023-03-31T17:07:58;9.27;;;2.50;;
42246;SDS011;27913;42.722;23.268;2023-03-31T17:10:24;6.97;;;2.58;;
42246;SDS011;27913;42.722;23.268;2023-03-31T17:12:50;11.73;;;3.28;;
42246;SDS011;27913;42.722;23.268;2023-03-31T17:15:16;12.18;;;3.33;;
42246;SDS011;27913;42.722;23.268;2023-03-31T17:17:42;15.45;;;2.88;;
42246;SDS011;27913;42.722;23.268;2023-03-31T17:20:08;14.23;;;3.70;;
42246;SDS011;27913;42.722;23.268;2023-03-31T17:22:34;16.63;;;3.72;;
42246;SDS011;27913;42.722;23.268;2023-03-31T17:25:00;9.07;;;3.70;;
42246;SDS011;27913;42.722;23.268;2023-03-31T17:27:26;14.10;;;5.13;;
42246;SDS011;27913;42.722;23.268;2023-03-31T17:29:52;13.57;;;5.25;;
42246;SDS011;27913;42.722;23.268;2023-03-31T17:32:18;13.13;;;4.90;;
42246;SDS011;27913;42.722;23.268;2023-03-31T17:34:44;17.48;;;5.93;;
42246;SDS011;27913;42.722;23.268;2023-03-31T17:37:12;16.65;;;5.50;;
42246;SDS011;27913;42.722;23.268;2023-03-31T17:39:39;14.40;;;4.70;;
42246;SDS011;27913;42.722;23.268;2023-03-31T17:42:04;18.65;;;5.32;;
42246;SDS011;27913;42.722;23.268;2023-03-31T17:44:30;10.18;;;4.05;;
42246;SDS011;27913;42.722;23.268;2023-03-31T17:46:55;10.70;;;3.90;;
42246;SDS011;27913;42.722;23.268;2023-03-31T17:49:21;10.00;;;3.33;;
42246;SDS011;27913;42.722;23.268;2023-03-31T17:51:47;8.73;;;3.15;;
42246;SDS011;27913;42.722;23.268;2023-03-31T17:54:13;11.27;;;3.65;;
42246;SDS011;27913;42.722;23.268;2023-03-31T17:56:39;13.95;;;3.95;;
42246;SDS011;27913;42.722;23.268;2023-03-31T17:59:06;9.45;;;3.70;;
42246;SDS011;27913;42.722;23.268;2023-03-31T18:01:31;10.32;;;3.95;;
42246;SDS011;27913;42.722;23.268;2023-03-31T18:03:57;10.25;;;3.05;;
42246;SDS011;27913;42.722;23.268;2023-03-31T18:06:23;19.70;;;6.10;;